sensor_id;sensor_type;location;lat;lon;timestamp;P1;durP1;ratioP1;P2;durP2;ratioP2
77148;SDS011;66122;47.130;16.844;2024-02-16T00:07:48;0.30;;;0.20;;
77148;SDS011;66122;47.130;16.844;2024-02-16T00:17:51;0.30;;;0.20;;
77148;SDS011;66122;47.130;16.844;2024-02-16T00:27:53;0.30;;;0.20;;
77148;SDS011;66122;47.130;16.844;2024-02-16T00:37:56;0.30;;;0.20;;
77148;SDS011;66122;47.130;16.844;2024-02-16T00:47:58;0.40;;;0.27;;
77148;SDS011;66122;47.130;16.844;2024-02-16T00:58:01;0.30;;;0.20;;
77148;SDS011;66122;47.130;16.844;2024-02-16T01:08:03;0.30;;;0.20;;
77148;SDS011;66122;47.130;16.844;2024-02-16T01:18:06;0.30;;;0.20;;
77148;SDS011;66122;47.130;16.844;2024-02-16T01:28:09;0.52;;;0.40;;
77148;SDS011;66122;47.130;16.844;2024-02-16T01:38:14;0.30;;;0.20;;
77148;SDS011;66122;47.130;16.844;2024-02-16T01:48:16;0.50;;;0.40;;
77148;SDS011;66122;47.130;16.844;2024-02-16T01:58:19;0.30;;;0.17;;
77148;SDS011;66122;47.130;16.844;2024-02-16T02:08:22;0.40;;;0.30;;
77148;SDS011;66122;47.130;16.844;2024-02-16T02:18:25;0.40;;;0.30;;
77148;SDS011;66122;47.130;16.844;2024-02-16T02:28:27;0.30;;;0.10;;
77148;SDS011;66122;47.130;16.844;2024-02-16T02:38:31;0.30;;;0.20;;
77148;SDS011;66122;47.130;16.844;2024-02-16T02:48:34;0.40;;;0.30;;
77148;SDS011;66122;47.130;16.844;2024-02-16T02:58:38;0.30;;;0.20;;
77148;SDS011;66122;47.130;16.844;2024-02-16T03:08:41;0.38;;;0.25;;
77148;SDS011;66122;47.130;16.844;2024-02-16T03:18:43;0.40;;;0.20;;
77148;SDS011;66122;47.130;16.844;2024-02-16T03:28:47;0.30;;;0.20;;
77148;SDS011;66122;47.130;16.844;2024-02-16T03:38:50;0.30;;;0.20;;
77148;SDS011;66122;47.130;16.844;2024-02-16T03:48:53;0.30;;;0.20;;
77148;SDS011;66122;47.130;16.844;2024-02-16T03:58:56;0.30;;;0.20;;
77148;SDS011;66122;47.130;16.844;2024-02-16T04:08:58;0.30;;;0.17;;
77148;SDS011;66122;47.130;16.844;2024-02-16T04:19:01;0.30;;;0.20;;
77148;SDS011;66122;47.130;16.844;2024-02-16T04:29:04;0.30;;;0.17;;
77148;SDS011;66122;47.130;16.844;2024-02-16T04:39:06;0.50;;;0.40;;
77148;SDS011;66122;47.130;16.844;2024-02-16T04:49:09;0.47;;;0.30;;
77148;SDS011;66122;47.130;16.844;2024-02-16T04:59:12;0.30;;;0.20;;
77148;SDS011;66122;47.130;16.844;2024-02-16T05:09:14;0.40;;;0.30;;
77148;SDS011;66122;47.130;16.844;2024-02-16T05:19:19;0.40;;;0.22;;
77148;SDS011;66122;47.130;16.844;2024-02-16T05:29:22;0.30;;;0.20;;
77148;SDS011;66122;47.130;16.844;2024-02-16T05:39:26;0.40;;;0.27;;
77148;SDS011;66122;47.130;16.844;2024-02-16T05:49:29;0.30;;;0.20;;
77148;SDS011;66122;47.130;16.844;2024-02-16T05:59:32;0.30;;;0.20;;
77148;SDS011;66122;47.130;16.844;2024-02-16T06:09:35;0.30;;;0.20;;
77148;SDS011;66122;47.130;16.844;2024-02-16T06:19:40;0.30;;;0.20;;
77148;SDS011;66122;47.130;16.844;2024-02-16T06:29:44;0.40;;;0.30;;
77148;SDS011;66122;47.130;16.844;2024-02-16T06:39:47;0.37;;;0.20;;
77148;SDS011;66122;47.130;16.844;2024-02-16T06:49:49;0.30;;;0.20;;
77148;SDS011;66122;47.130;16.844;2024-02-16T06:59:52;0.20;;;0.10;;
77148;SDS011;66122;47.130;16.844;2024-02-16T07:09:55;0.40;;;0.22;;
77148;SDS011;66122;47.130;16.844;2024-02-16T07:19:59;0.30;;;0.20;;
77148;SDS011;66122;47.130;16.844;2024-02-16T07:30:03;0.60;;;0.40;;
77148;SDS011;66122;47.130;16.844;2024-02-16T07:40:07;0.30;;;0.20;;
77148;SDS011;66122;47.130;16.844;2024-02-16T07:50:11;0.40;;;0.20;;
77148;SDS011;66122;47.130;16.844;2024-02-16T08:00:19;0.40;;;0.30;;
77148;SDS011;66122;47.130;16.844;2024-02-16T08:10:31;0.50;;;0.38;;
77148;SDS011;66122;47.130;16.844;2024-02-16T08:20:34;0.40;;;0.20;;
77148;SDS011;66122;47.130;16.844;2024-02-16T08:30:38;0.40;;;0.20;;
77148;SDS011;66122;47.130;16.844;2024-02-16T08:40:47;0.50;;;0.40;;
77148;SDS011;66122;47.130;16.844;2024-02-16T08:50:58;0.60;;;0.50;;
77148;SDS011;66122;47.130;16.844;2024-02-16T09:01:03;0.50;;;0.30;;
77148;SDS011;66122;47.130;16.844;2024-02-16T09:11:07;0.50;;;0.40;;
77148;SDS011;66122;47.130;16.844;2024-02-16T09:21:09;0.52;;;0.40;;
77148;SDS011;66122;47.130;16.844;2024-02-16T09:31:15;0.53;;;0.40;;
77148;SDS011;66122;47.130;16.844;2024-02-16T09:41:18;0.40;;;0.30;;
77148;SDS011;66122;47.130;16.844;2024-02-16T09:51:23;0.40;;;0.20;;
77148;SDS011;66122;47.130;16.844;2024-02-16T10:01:26;0.50;;;0.30;;
77148;SDS011;66122;47.130;16.844;2024-02-16T10:11:29;0.70;;;0.70;;
77148;SDS011;66122;47.130;16.844;2024-02-16T10:21:33;0.65;;;0.52;;
77148;SDS011;66122;47.130;16.844;2024-02-16T10:31:38;0.73;;;0.67;;
77148;SDS011;66122;47.130;16.844;2024-02-16T10:41:41;0.60;;;0.50;;
77148;SDS011;66122;47.130;16.844;2024-02-16T10:51:45;0.60;;;0.43;;
77148;SDS011;66122;47.130;16.844;2024-02-16T11:01:58;0.50;;;0.30;;
77148;SDS011;66122;47.130;16.844;2024-02-16T11:12:03;0.63;;;0.50;;
77148;SDS011;66122;47.130;16.844;2024-02-16T11:22:06;0.80;;;0.80;;
77148;SDS011;66122;47.130;16.844;2024-02-16T11:32:12;1.02;;;0.93;;
77148;SDS011;66122;47.130;16.844;2024-02-16T11:42:22;0.70;;;0.50;;
77148;SDS011;66122;47.130;16.844;2024-02-16T11:52:41;0.80;;;0.80;;
77148;SDS011;66122;47.130;16.844;2024-02-16T12:02:44;0.70;;;0.60;;
77148;SDS011;66122;47.130;16.844;2024-02-16T12:12:47;1.20;;;1.10;;
77148;SDS011;66122;47.130;16.844;2024-02-16T12:22:51;0.80;;;0.80;;
77148;SDS011;66122;47.130;16.844;2024-02-16T12:32:54;1.00;;;0.90;;
77148;SDS011;66122;47.130;16.844;2024-02-16T12:42:59;0.70;;;0.50;;
77148;SDS011;66122;47.130;16.844;2024-02-16T12:53:02;0.80;;;0.80;;
77148;SDS011;66122;47.130;16.844;2024-02-16T13:03:06;0.70;;;0.67;;
77148;SDS011;66122;47.130;16.844;2024-02-16T13:13:09;1.23;;;1.13;;
77148;SDS011;66122;47.130;16.844;2024-02-16T13:23:17;0.80;;;0.70;;
77148;SDS011;66122;47.130;16.844;2024-02-16T13:33:20;1.00;;;0.90;;
77148;SDS011;66122;47.130;16.844;2024-02-16T13:43:23;0.85;;;0.80;;
77148;SDS011;66122;47.130;16.844;2024-02-16T13:53:28;0.80;;;0.80;;
77148;SDS011;66122;47.130;16.844;2024-02-16T14:03:32;0.50;;;0.30;;
77148;SDS011;66122;47.130;16.844;2024-02-16T14:13:36;0.60;;;0.43;;
77148;SDS011;66122;47.130;16.844;2024-02-16T14:23:41;0.60;;;0.52;;
77148;SDS011;66122;47.130;16.844;2024-02-16T14:33:45;0.50;;;0.40;;
77148;SDS011;66122;47.130;16.844;2024-02-16T14:43:49;0.50;;;0.30;;
77148;SDS011;66122;47.130;16.844;2024-02-16T14:53:52;0.63;;;0.55;;
77148;SDS011;66122;47.130;16.844;2024-02-16T15:03:54;0.50;;;0.40;;
77148;SDS011;66122;47.130;16.844;2024-02-16T15:13:57;0.50;;;0.30;;
77148;SDS011;66122;47.130;16.844;2024-02-16T15:24:01;0.50;;;0.30;;
77148;SDS011;66122;47.130;16.844;2024-02-16T15:34:03;0.63;;;0.50;;
77148;SDS011;66122;47.130;16.844;2024-02-16T15:44:07;0.50;;;0.30;;
77148;SDS011;66122;47.130;16.844;2024-02-16T15:54:09;0.40;;;0.30;;
77148;SDS011;66122;47.130;16.844;2024-02-16T16:04:12;0.45;;;0.30;;
77148;SDS011;66122;47.130;16.844;2024-02-16T16:14:16;0.40;;;0.30;;
77148;SDS011;66122;47.130;16.844;2024-02-16T16:24:19;0.40;;;0.30;;
77148;SDS011;66122;47.130;16.844;2024-02-16T16:34:22;0.55;;;0.47;;
77148;SDS011;66122;47.130;16.844;2024-02-16T16:44:25;0.50;;;0.37;;
77148;SDS011;66122;47.130;16.844;2024-02-16T16:54:27;0.50;;;0.33;;
77148;SDS011;66122;47.130;16.844;2024-02-16T17:04:30;0.40;;;0.22;;
77148;SDS011;66122;47.130;16.844;2024-02-16T17:14:38;0.50;;;0.40;;
77148;SDS011;66122;47.130;16.844;2024-02-16T17:24:41;0.30;;;0.20;;
77148;SDS011;66122;47.130;16.844;2024-02-16T17:34:44;0.40;;;0.23;;
77148;SDS011;66122;47.130;16.844;2024-02-16T17:44:47;0.32;;;0.20;;
77148;SDS011;66122;47.130;16.844;2024-02-16T17:54:50;0.40;;;0.20;;
77148;SDS011;66122;47.130;16.844;2024-02-16T18:04:53;0.40;;;0.20;;
77148;SDS011;66122;47.130;16.844;2024-02-16T18:14:56;0.40;;;0.30;;
77148;SDS011;66122;47.130;16.844;2024-02-16T18:24:59;0.30;;;0.20;;
77148;SDS011;66122;47.130;16.844;2024-02-16T18:35:01;0.47;;;0.30;;
77148;SDS011;66122;47.130;16.844;2024-02-16T18:45:05;0.40;;;0.30;;
77148;SDS011;66122;47.130;16.844;2024-02-16T18:55:11;0.50;;;0.40;;
77148;SDS011;66122;47.130;16.844;2024-02-16T19:05:14;0.40;;;0.30;;
77148;SDS011;66122;47.130;16.844;2024-02-16T19:15:17;0.40;;;0.30;;
77148;SDS011;66122;47.130;16.844;2024-02-16T19:25:20;0.30;;;0.10;;
77148;SDS011;66122;47.130;16.844;2024-02-16T19:35:23;0.40;;;0.30;;
77148;SDS011;66122;47.130;16.844;2024-02-16T19:45:28;0.30;;;0.20;;
77148;SDS011;66122;47.130;16.844;2024-02-16T19:55:30;0.43;;;0.30;;
77148;SDS011;66122;47.130;16.844;2024-02-16T20:05:33;0.40;;;0.30;;
77148;SDS011;66122;47.130;16.844;2024-02-16T20:15:36;0.43;;;0.30;;
77148;SDS011;66122;47.130;16.844;2024-02-16T20:25:40;0.40;;;0.30;;
77148;SDS011;66122;47.130;16.844;2024-02-16T20:35:42;0.50;;;0.30;;
77148;SDS011;66122;47.130;16.844;2024-02-16T20:45:45;0.40;;;0.30;;
77148;SDS011;66122;47.130;16.844;2024-02-16T20:55:48;0.60;;;0.50;;
77148;SDS011;66122;47.130;16.844;2024-02-16T21:05:51;0.40;;;0.22;;
77148;SDS011;66122;47.130;16.844;2024-02-16T21:15:53;0.40;;;0.27;;
77148;SDS011;66122;47.130;16.844;2024-02-16T21:25:56;0.50;;;0.43;;
77148;SDS011;66122;47.130;16.844;2024-02-16T21:35:59;0.40;;;0.25;;
77148;SDS011;66122;47.130;16.844;2024-02-16T21:46:02;0.30;;;0.20;;
77148;SDS011;66122;47.130;16.844;2024-02-16T21:56:06;0.40;;;0.30;;
77148;SDS011;66122;47.130;16.844;2024-02-16T22:06:09;0.30;;;0.13;;
77148;SDS011;66122;47.130;16.844;2024-02-16T22:16:12;0.40;;;0.30;;
77148;SDS011;66122;47.130;16.844;2024-02-16T22:26:15;0.30;;;0.20;;
77148;SDS011;66122;47.130;16.844;2024-02-16T22:36:18;0.30;;;0.20;;
77148;SDS011;66122;47.130;16.844;2024-02-16T22:46:20;0.45;;;0.32;;
77148;SDS011;66122;47.130;16.844;2024-02-16T22:56:23;0.40;;;0.20;;
77148;SDS011;66122;47.130;16.844;2024-02-16T23:06:25;0.30;;;0.13;;
77148;SDS011;66122;47.130;16.844;2024-02-16T23:16:28;0.30;;;0.20;;
77148;SDS011;66122;47.130;16.844;2024-02-16T23:26:32;0.30;;;0.10;;
77148;SDS011;66122;47.130;16.844;2024-02-16T23:36:35;0.30;;;0.13;;
77148;SDS011;66122;47.130;16.844;2024-02-16T23:46:37;0.30;;;0.17;;
77148;SDS011;66122;47.130;16.844;2024-02-16T23:56:40;0.40;;;0.30;;
